TimePDT,TemperatureF,Dew PointF,Humidity,Sea Level PressureIn,VisibilityMPH,Wind Direction,Wind SpeedMPH,Gust SpeedMPH,PrecipitationIn,Events,Conditions,WindDirDegrees,DateUTC
12:15 AM,48.2,33.8,58,30.07,10.0,SSE,11.5,-,N/A,,Clear,150,2012-10-09 07:15:00
12:55 AM,44.6,32.0,61,30.07,10.0,SSE,10.4,-,N/A,,Clear,160,2012-10-09 07:55:00
1:15 AM,42.8,32.0,66,30.07,10.0,South,5.8,-,N/A,,Clear,190,2012-10-09 08:15:00
1:35 AM,37.4,28.4,70,30.07,10.0,NW,5.8,-,N/A,,Clear,320,2012-10-09 08:35:00
1:55 AM,35.6,28.4,75,30.07,10.0,North,6.9,-,N/A,,Clear,360,2012-10-09 08:55:00
2:15 AM,33.8,26.6,75,30.07,10.0,North,8.1,-,N/A,,Clear,350,2012-10-09 09:15:00
2:35 AM,33.8,26.6,75,30.08,10.0,North,8.1,-,N/A,,Clear,360,2012-10-09 09:35:00
2:55 AM,32.0,26.6,80,30.08,10.0,North,4.6,-,N/A,,Clear,360,2012-10-09 09:55:00
3:15 AM,30.2,24.8,80,30.08,10.0,North,8.1,-,N/A,,Clear,350,2012-10-09 10:15:00
3:35 AM,30.2,26.6,86,30.08,10.0,NNW,6.9,-,N/A,,Clear,340,2012-10-09 10:35:00
3:55 AM,30.2,26.6,86,30.09,10.0,North,8.1,-,N/A,,Clear,350,2012-10-09 10:55:00
4:15 AM,30.2,26.6,86,30.08,10.0,NNW,9.2,-,N/A,,Clear,340,2012-10-09 11:15:00
4:55 AM,28.4,24.8,86,30.09,10.0,NNW,6.9,-,N/A,,Clear,330,2012-10-09 11:55:00
5:15 AM,30.2,24.8,80,30.08,10.0,NW,6.9,-,N/A,,Clear,320,2012-10-09 12:15:00
5:35 AM,28.4,24.8,86,30.09,10.0,NNW,5.8,-,N/A,,Clear,330,2012-10-09 12:35:00
5:55 AM,28.4,26.6,93,30.09,10.0,NNW,5.8,-,N/A,,Clear,340,2012-10-09 12:55:00
6:15 AM,26.6,23.0,86,30.09,10.0,NNW,5.8,-,N/A,,Clear,340,2012-10-09 13:15:00
6:55 AM,26.6,24.8,93,30.09,10.0,NNW,8.1,-,N/A,,Clear,340,2012-10-09 13:55:00
7:35 AM,26.6,23.0,86,30.09,10.0,Calm,Calm,-,N/A,,Clear,0,2012-10-09 14:35:00
8:15 AM,35.6,30.2,81,30.09,10.0,NNW,6.9,-,N/A,,Clear,330,2012-10-09 15:15:00
8:35 AM,41.0,32.0,70,30.09,10.0,NNW,5.8,-,N/A,,Clear,340,2012-10-09 15:35:00
8:55 AM,44.6,32.0,61,30.09,10.0,Calm,Calm,-,N/A,,Clear,0,2012-10-09 15:55:00
9:15 AM,48.2,33.8,58,30.10,10.0,NNE,4.6,-,N/A,,Clear,30,2012-10-09 16:15:00
9:35 AM,48.2,33.8,58,30.10,10.0,ESE,3.5,-,N/A,,Clear,120,2012-10-09 16:35:00
9:55 AM,50.0,35.6,58,30.10,10.0,ESE,4.6,-,N/A,,Clear,120,2012-10-09 16:55:00
10:15 AM,53.6,35.6,51,30.09,10.0,Calm,Calm,-,N/A,,Clear,0,2012-10-09 17:15:00
10:35 AM,57.2,30.2,36,30.09,10.0,North,10.4,-,N/A,,Clear,350,2012-10-09 17:35:00
10:55 AM,59.0,24.8,27,30.09,10.0,NNE,8.1,-,N/A,,Clear,20,2012-10-09 17:55:00
11:15 AM,60.8,24.8,25,30.08,10.0,North,9.2,-,N/A,,Clear,10,2012-10-09 18:15:00
11:35 AM,62.6,24.8,24,30.07,10.0,North,10.4,-,N/A,,Clear,350,2012-10-09 18:35:00
11:55 AM,62.6,24.8,24,30.07,10.0,North,10.4,-,N/A,,Clear,360,2012-10-09 18:55:00
12:15 PM,64.4,23.0,21,30.06,10.0,North,9.2,-,N/A,,Clear,350,2012-10-09 19:15:00
12:35 PM,66.2,23.0,19,30.06,10.0,NNW,12.7,-,N/A,,Clear,340,2012-10-09 19:35:00
12:55 PM,66.2,21.2,18,30.05,10.0,NNW,13.8,19.6,N/A,,Clear,340,2012-10-09 19:55:00
1:15 PM,68.0,21.2,17,30.04,10.0,NNW,13.8,21.9,N/A,,Clear,330,2012-10-09 20:15:00
1:55 PM,69.8,21.2,16,30.02,10.0,North,17.3,-,N/A,,Clear,350,2012-10-09 20:55:00
2:15 PM,69.8,21.2,16,30.01,10.0,North,16.1,24.2,N/A,,Clear,350,2012-10-09 21:15:00
2:35 PM,69.8,21.2,16,30.01,10.0,North,17.3,23.0,N/A,,Clear,350,2012-10-09 21:35:00
2:55 PM,69.8,21.2,16,30.01,10.0,North,18.4,24.2,N/A,,Clear,350,2012-10-09 21:55:00
3:15 PM,69.8,19.4,15,30.01,10.0,North,15.0,24.2,N/A,,Clear,350,2012-10-09 22:15:00
3:35 PM,69.8,19.4,15,30.01,10.0,North,16.1,23.0,N/A,,Clear,360,2012-10-09 22:35:00
3:55 PM,71.6,19.4,14,30.01,10.0,North,17.3,21.9,N/A,,Clear,360,2012-10-09 22:55:00
4:15 PM,71.6,19.4,14,30.00,10.0,North,17.3,20.7,N/A,,Clear,360,2012-10-09 23:15:00
4:35 PM,69.8,19.4,15,30.00,10.0,North,16.1,21.9,N/A,,Clear,360,2012-10-09 23:35:00
4:55 PM,69.8,19.4,15,30.00,10.0,North,16.1,23.0,N/A,,Clear,360,2012-10-09 23:55:00
5:15 PM,66.2,17.6,15,30.00,10.0,North,17.3,23.0,N/A,,Clear,360,2012-10-10 00:15:00
5:35 PM,66.2,17.6,15,30.00,10.0,North,13.8,21.9,N/A,,Clear,350,2012-10-10 00:35:00
5:55 PM,64.4,17.6,16,30.00,10.0,North,12.7,-,N/A,,Clear,360,2012-10-10 00:55:00
6:15 PM,62.6,17.6,18,30.00,10.0,North,9.2,-,N/A,,Clear,360,2012-10-10 01:15:00
6:35 PM,59.0,15.8,19,30.00,10.0,North,8.1,-,N/A,,Clear,350,2012-10-10 01:35:00
6:55 PM,55.4,15.8,21,30.01,10.0,NW,10.4,-,N/A,,Clear,320,2012-10-10 01:55:00
7:15 PM,55.4,15.8,21,30.01,10.0,NNW,13.8,-,N/A,,Clear,330,2012-10-10 02:15:00
7:35 PM,55.4,15.8,21,30.01,10.0,NNW,13.8,-,N/A,,Clear,340,2012-10-10 02:35:00
7:55 PM,55.4,15.8,21,30.02,10.0,NNW,15.0,-,N/A,,Clear,340,2012-10-10 02:55:00
8:15 PM,55.4,15.8,21,30.02,10.0,North,13.8,-,N/A,,Clear,350,2012-10-10 03:15:00
8:35 PM,57.2,15.8,20,30.03,10.0,North,12.7,-,N/A,,Clear,350,2012-10-10 03:35:00
8:55 PM,57.2,15.8,20,30.03,10.0,NNE,10.4,-,N/A,,Clear,20,2012-10-10 03:55:00
9:15 PM,55.4,15.8,21,30.03,10.0,North,11.5,-,N/A,,Clear,350,2012-10-10 04:15:00
9:35 PM,51.8,15.8,24,30.03,10.0,NNW,12.7,-,N/A,,Clear,340,2012-10-10 04:35:00
9:55 PM,50.0,15.8,26,30.03,10.0,NNW,11.5,-,N/A,,Clear,330,2012-10-10 04:55:00
10:15 PM,48.2,17.6,30,30.04,10.0,North,6.9,-,N/A,,Clear,10,2012-10-10 05:15:00
10:35 PM,44.6,15.8,31,30.04,10.0,NNW,9.2,-,N/A,,Clear,340,2012-10-10 05:35:00
10:55 PM,51.8,17.6,26,30.04,10.0,NNW,12.7,-,N/A,,Clear,340,2012-10-10 05:55:00
11:15 PM,48.2,15.8,27,30.05,10.0,NW,6.9,-,N/A,,Clear,310,2012-10-10 06:15:00
11:35 PM,44.6,17.6,34,30.05,10.0,WNW,8.1,-,N/A,,Clear,290,2012-10-10 06:35:00
11:55 PM,42.8,17.6,36,30.05,10.0,NNW,8.1,-,N/A,,Clear,330,2012-10-10 06:55:00